createdAt,value
2022-08-26T00:02:37.000Z,72.68
2022-08-26T00:07:34.000Z,72.06
2022-08-26T00:12:47.000Z,70.86
2022-08-26T00:17:36.000Z,70.62
2022-08-26T00:22:34.000Z,70.59
2022-08-26T00:27:35.000Z,70.54
2022-08-26T00:32:36.000Z,72.13
2022-08-26T00:37:35.000Z,72.13
2022-08-26T00:42:35.000Z,72.6
2022-08-26T00:47:35.000Z,72.67
2022-08-26T00:52:35.000Z,72.6
2022-08-26T00:57:36.000Z,72.28
2022-08-26T01:02:35.000Z,72.17
2022-08-26T01:07:35.000Z,72.17
2022-08-26T01:12:35.000Z,73.55
2022-08-26T01:22:38.000Z,73.35
2022-08-26T01:27:35.000Z,72.85
2022-08-26T01:32:35.000Z,72.27
2022-08-26T01:37:34.000Z,73.01
2022-08-26T01:42:34.000Z,72.97
2022-08-26T01:47:35.000Z,73.77
2022-08-26T01:52:38.000Z,73.77
2022-08-26T01:57:35.000Z,73.34
2022-08-26T02:02:35.000Z,72.4
2022-08-26T02:07:37.000Z,69.46
2022-08-26T02:12:36.000Z,69.84
2022-08-26T02:17:35.000Z,69.57
2022-08-26T02:22:35.000Z,71.52
2022-08-26T02:27:38.000Z,71.1
2022-08-26T02:32:37.000Z,72.01
2022-08-26T02:37:35.000Z,73.01
2022-08-26T02:42:35.000Z,73.85
2022-08-26T02:47:34.000Z,73.65
2022-08-26T02:52:34.000Z,73.61
2022-08-26T02:57:35.000Z,71.22
2022-08-26T03:07:35.000Z,70.55
2022-08-26T03:12:35.000Z,70.8
2022-08-26T03:17:37.000Z,69.87
2022-08-26T03:22:34.000Z,73.23
2022-08-26T03:27:35.000Z,72.91
2022-08-26T03:32:37.000Z,72.6
2022-08-26T03:37:35.000Z,74.32
2022-08-26T03:42:34.000Z,79.24
2022-08-26T03:47:35.000Z,78.16
2022-08-26T03:52:35.000Z,79.82
2022-08-26T03:57:34.000Z,82.45
2022-08-26T04:07:35.000Z,82.68
2022-08-26T04:12:36.000Z,82.68
2022-08-26T04:17:35.000Z,88.94
2022-08-26T04:22:35.000Z,87.85
2022-08-26T04:27:35.000Z,89.51
2022-08-26T04:32:34.000Z,87.6
2022-08-26T04:37:35.000Z,88.32
2022-08-26T04:42:36.000Z,88.62
2022-08-26T04:47:40.000Z,96.43
2022-08-26T04:52:35.000Z,195.18
2022-08-26T04:57:35.000Z,259.84
2022-08-26T05:02:35.000Z,214.12
2022-08-26T05:07:35.000Z,258.63
2022-08-26T05:12:34.000Z,265.46
2022-08-26T05:17:35.000Z,252.32
2022-08-26T05:22:35.000Z,244.83
2022-08-26T05:27:34.000Z,244.83
2022-08-26T05:32:34.000Z,243.77
2022-08-26T05:37:35.000Z,225.6
2022-08-26T05:42:34.000Z,173.72
2022-08-26T05:47:35.000Z,156.84
2022-08-26T05:52:36.000Z,149.43
2022-08-26T05:57:35.000Z,125.34
2022-08-26T06:02:35.000Z,107.52
2022-08-26T06:07:35.000Z,92.67
2022-08-26T06:12:35.000Z,91.37
2022-08-26T06:17:35.000Z,79.27
2022-08-26T06:27:42.000Z,68.48
2022-08-26T06:32:35.000Z,77.81
2022-08-26T06:37:35.000Z,65.63
2022-08-26T06:42:34.000Z,70.39
2022-08-26T06:47:35.000Z,64.94
2022-08-26T06:52:34.000Z,59.93
2022-08-26T06:57:35.000Z,52.7
2022-08-26T07:02:38.000Z,52.7
2022-08-26T07:12:35.000Z,37.08
2022-08-26T07:17:35.000Z,38.19
2022-08-26T07:22:35.000Z,41.5
2022-08-26T07:27:35.000Z,43.88
2022-08-26T07:32:35.000Z,38.62
2022-08-26T07:37:35.000Z,33.52
2022-08-26T07:42:35.000Z,26.38
2022-08-26T07:47:36.000Z,20.8
2022-08-26T07:52:37.000Z,20.8
2022-08-26T07:57:34.000Z,22.87
2022-08-26T08:02:35.000Z,20.79
2022-08-26T08:07:55.000Z,19.71
2022-08-26T08:12:35.000Z,20.78
2022-08-26T08:22:37.000Z,19.8
2022-08-26T08:27:35.000Z,17.84
2022-08-26T08:32:35.000Z,20.15
2022-08-26T08:37:35.000Z,19.33
2022-08-26T08:42:34.000Z,18.61
2022-08-26T08:47:34.000Z,18.51
2022-08-26T08:52:36.000Z,17.05
2022-08-26T08:57:35.000Z,16.4
2022-08-26T09:02:36.000Z,14.39
2022-08-26T09:07:36.000Z,15.03
2022-08-26T09:12:40.000Z,18.71
2022-08-26T09:17:35.000Z,18.45
2022-08-26T09:22:34.000Z,18.45
2022-08-26T09:27:35.000Z,19.44
2022-08-26T09:32:35.000Z,20.11
2022-08-26T09:37:34.000Z,18.95
2022-08-26T09:42:35.000Z,18.11
2022-08-26T09:47:34.000Z,19.95
2022-08-26T09:52:34.000Z,21.48
2022-08-26T09:57:34.000Z,22.3
2022-08-26T10:02:35.000Z,21.07
2022-08-26T10:07:34.000Z,18.49
2022-08-26T10:12:35.000Z,18.87
2022-08-26T10:17:35.000Z,19.24
2022-08-26T10:22:35.000Z,19.98
2022-08-26T10:27:34.000Z,18.87
2022-08-26T10:32:35.000Z,22.29
2022-08-26T10:37:35.000Z,22.29
2022-08-26T10:42:34.000Z,19.88
2022-08-26T10:47:35.000Z,19.14
2022-08-26T10:52:39.000Z,18.68
2022-08-26T10:57:35.000Z,18.72
2022-08-26T11:02:35.000Z,18.4
2022-08-26T11:07:35.000Z,19.72
2022-08-26T11:12:34.000Z,19.89
2022-08-26T11:17:35.000Z,19.4
2022-08-26T11:22:35.000Z,19.94
2022-08-26T11:27:35.000Z,15.86
2022-08-26T11:32:35.000Z,14.87
2022-08-26T11:37:35.000Z,14.57
2022-08-26T11:42:37.000Z,14.38
2022-08-26T11:47:35.000Z,16.93
2022-08-26T11:52:35.000Z,16.93
2022-08-26T11:57:35.000Z,17.59
2022-08-26T12:02:36.000Z,17.46
2022-08-26T12:07:35.000Z,16.46
2022-08-26T12:12:36.000Z,16.52
2022-08-26T12:17:35.000Z,17.8
2022-08-26T12:22:34.000Z,15.73
2022-08-26T12:27:35.000Z,13.33
2022-08-26T12:32:35.000Z,12.73
2022-08-26T12:37:34.000Z,13.38
2022-08-26T12:42:35.000Z,15.33
2022-08-26T12:47:52.000Z,15.72
2022-08-26T12:52:35.000Z,16.28
2022-08-26T12:57:35.000Z,18.32
2022-08-26T13:02:35.000Z,18.77
2022-08-26T13:07:35.000Z,18.77
2022-08-26T13:12:35.000Z,18.46
2022-08-26T13:17:35.000Z,17.51
2022-08-26T13:22:35.000Z,18.18
2022-08-26T13:27:35.000Z,17.14
2022-08-26T13:32:37.000Z,15.92
2022-08-26T13:37:45.000Z,16.29
2022-08-26T13:42:34.000Z,17.67
2022-08-26T13:47:34.000Z,18.11
2022-08-26T13:52:41.000Z,18.84
2022-08-26T13:57:35.000Z,17.38
2022-08-26T14:02:34.000Z,16.53
2022-08-26T14:07:34.000Z,20.03
2022-08-26T14:12:35.000Z,19.44
2022-08-26T14:17:35.000Z,19.44
2022-08-26T14:22:35.000Z,23.84
2022-08-26T14:32:35.000Z,18.57
2022-08-26T14:37:35.000Z,18.43
2022-08-26T14:42:35.000Z,18.68
2022-08-26T14:47:35.000Z,18.68
2022-08-26T14:52:35.000Z,19.67
2022-08-26T14:57:35.000Z,19.57
2022-08-26T15:02:50.000Z,20.24
2022-08-26T15:07:34.000Z,20.49
2022-08-26T15:12:34.000Z,19.31
2022-08-26T15:17:34.000Z,18.1
2022-08-26T15:22:39.000Z,25.67
2022-08-26T15:27:35.000Z,22.38
2022-08-26T15:32:35.000Z,22.27
2022-08-26T15:37:35.000Z,23.72
2022-08-26T15:47:34.000Z,23.45
2022-08-26T15:52:35.000Z,22.59
2022-08-26T15:57:36.000Z,24.21
2022-08-26T16:02:41.000Z,28.19
2022-08-26T16:07:34.000Z,27.91
2022-08-26T16:12:35.000Z,27.12
2022-08-26T16:17:35.000Z,25.56
2022-08-26T16:22:38.000Z,25.47
2022-08-26T16:27:34.000Z,25.47
2022-08-26T16:32:41.000Z,26.26
2022-08-26T16:37:35.000Z,26.88
2022-08-26T16:42:34.000Z,29.44
2022-08-26T16:47:35.000Z,32.19
2022-08-26T16:52:40.000Z,34.95
2022-08-26T16:57:35.000Z,33.69
2022-08-26T17:02:35.000Z,30.82
2022-08-26T17:07:35.000Z,32.28
2022-08-26T17:12:34.000Z,31.85
2022-08-26T17:17:34.000Z,33.51
2022-08-26T17:22:34.000Z,36.28
2022-08-26T17:27:35.000Z,37.77
2022-08-26T17:32:35.000Z,40.61
2022-08-26T17:37:35.000Z,40.61
2022-08-26T17:47:34.000Z,45.59
2022-08-26T17:52:35.000Z,66.7
2022-08-26T17:57:34.000Z,101.89
2022-08-26T18:12:37.000Z,283.94
2022-08-26T18:17:35.000Z,224.37
2022-08-26T18:22:35.000Z,252.67
2022-08-26T18:27:34.000Z,247.99
2022-08-26T18:32:35.000Z,131
2022-08-26T18:37:41.000Z,91.11
2022-08-26T18:42:35.000Z,100.53
2022-08-26T18:47:34.000Z,91.96
2022-08-26T18:57:35.000Z,100.13
2022-08-26T19:02:35.000Z,112.31
2022-08-26T19:07:35.000Z,129.21
2022-08-26T19:12:37.000Z,139.65
2022-08-26T19:17:35.000Z,139.65
2022-08-26T19:22:34.000Z,185.53
2022-08-26T19:27:34.000Z,255.35
2022-08-26T19:32:35.000Z,196.91
2022-08-26T19:37:35.000Z,117.33
2022-08-26T19:42:34.000Z,215.38
2022-08-26T19:47:34.000Z,178.27
2022-08-26T19:52:40.000Z,139.63
2022-08-26T19:57:35.000Z,172.9
2022-08-26T20:02:35.000Z,190.24
2022-08-26T20:07:34.000Z,183.1
2022-08-26T20:12:35.000Z,195.21
2022-08-26T20:17:35.000Z,216
2022-08-26T20:22:35.000Z,150.25
2022-08-26T20:27:35.000Z,108.64
2022-08-26T20:32:35.000Z,108.64
2022-08-26T20:37:35.000Z,111.79
2022-08-26T20:42:35.000Z,115.46
2022-08-26T20:47:34.000Z,119.14
2022-08-26T20:52:34.000Z,131.93
2022-08-26T20:57:34.000Z,192.24
2022-08-26T21:02:35.000Z,179.51
2022-08-26T21:07:35.000Z,192.7
2022-08-26T21:12:35.000Z,175.23
2022-08-26T21:17:35.000Z,156.17
2022-08-26T21:22:35.000Z,140.42
2022-08-26T21:27:37.000Z,156.19
2022-08-26T21:32:35.000Z,170.5
2022-08-26T21:37:34.000Z,145.86
2022-08-26T21:42:35.000Z,141.74
2022-08-26T21:47:34.000Z,141.74
2022-08-26T21:52:34.000Z,143.29
2022-08-26T21:57:34.000Z,164.11
2022-08-26T22:02:34.000Z,163.76
2022-08-26T22:07:35.000Z,175.74
2022-08-26T22:12:35.000Z,253.35
2022-08-26T22:17:35.000Z,333.93
2022-08-26T22:22:35.000Z,375.57
2022-08-26T22:27:35.000Z,324.48
2022-08-26T22:32:34.000Z,215.36
2022-08-26T22:37:35.000Z,192.7
2022-08-26T22:42:35.000Z,157.81
2022-08-26T22:47:35.000Z,132.55
2022-08-26T22:52:34.000Z,143.04
2022-08-26T22:57:34.000Z,221.18
2022-08-26T23:02:34.000Z,221.18
2022-08-26T23:07:34.000Z,264.17
2022-08-26T23:12:35.000Z,239.69
2022-08-26T23:17:35.000Z,228.44
2022-08-26T23:22:34.000Z,281.03
2022-08-26T23:27:35.000Z,369.27
2022-08-26T23:32:34.000Z,338.87
2022-08-26T23:37:36.000Z,293.94
2022-08-26T23:42:39.000Z,261.4
2022-08-26T23:47:35.000Z,274.97
2022-08-26T23:52:35.000Z,310.47
2022-08-26T23:57:35.000Z,332.77
